createdAt,value
2018-07-15T00:00:05.336Z,1012.96
2018-07-15T00:00:31.478Z,1012.91
2018-07-15T00:00:57.645Z,1012.93
2018-07-15T00:01:23.799Z,1012.93
2018-07-15T00:01:49.963Z,1012.92
2018-07-15T00:02:16.126Z,1012.93
2018-07-15T00:02:42.262Z,1012.92
2018-07-15T00:03:08.403Z,1012.9
2018-07-15T00:03:34.559Z,1012.9
2018-07-15T00:04:00.700Z,1012.94
2018-07-15T00:04:26.832Z,1012.92
2018-07-15T00:04:52.980Z,1012.92
2018-07-15T00:05:19.116Z,1012.92
2018-07-15T00:05:45.256Z,1012.93
2018-07-15T00:06:11.392Z,1012.91
2018-07-15T00:06:37.524Z,1012.95
2018-07-15T00:07:03.670Z,1012.94
2018-07-15T00:07:29.811Z,1012.94
2018-07-15T00:07:55.943Z,1012.94
2018-07-15T00:08:22.085Z,1012.93
2018-07-15T00:08:48.220Z,1012.91
2018-07-15T00:09:14.363Z,1012.92
2018-07-15T00:09:40.499Z,1012.92
2018-07-15T00:10:06.634Z,1012.92
2018-07-15T00:10:32.784Z,1012.94
2018-07-15T00:10:58.923Z,1012.94
2018-07-15T00:11:25.087Z,1012.96
2018-07-15T00:11:51.250Z,1012.92
2018-07-15T00:12:17.389Z,1012.95
2018-07-15T00:12:43.531Z,1012.95
2018-07-15T00:13:09.666Z,1012.94
2018-07-15T00:13:35.807Z,1012.94
2018-07-15T00:14:01.941Z,1012.94
2018-07-15T00:14:28.085Z,1012.95
2018-07-15T00:14:54.222Z,1012.94
2018-07-15T00:15:20.356Z,1012.95
2018-07-15T00:15:46.492Z,1012.92
2018-07-15T00:16:12.637Z,1012.94
2018-07-15T00:16:38.767Z,1012.93
2018-07-15T00:17:04.911Z,1012.9
2018-07-15T00:17:31.044Z,1012.93
2018-07-15T00:17:57.184Z,1012.92
2018-07-15T00:18:23.331Z,1012.93
2018-07-15T00:18:49.466Z,1012.89
2018-07-15T00:19:15.627Z,1012.91
2018-07-15T00:19:41.814Z,1012.89
2018-07-15T00:20:07.958Z,1012.9
2018-07-15T00:20:34.089Z,1012.92
2018-07-15T00:21:00.228Z,1012.92
2018-07-15T00:21:26.372Z,1012.93
2018-07-15T00:21:52.528Z,1012.89
2018-07-15T00:22:18.648Z,1012.92
2018-07-15T00:22:44.788Z,1012.88
2018-07-15T00:23:10.919Z,1012.9
2018-07-15T00:23:37.088Z,1012.91
2018-07-15T00:24:03.226Z,1012.93
2018-07-15T00:24:29.365Z,1012.92
2018-07-15T00:24:55.527Z,1012.93
2018-07-15T00:25:21.665Z,1012.89
2018-07-15T00:25:47.810Z,1012.93
2018-07-15T00:26:13.953Z,1012.9
2018-07-15T00:26:40.091Z,1012.91
2018-07-15T00:27:06.229Z,1012.92
2018-07-15T00:27:32.375Z,1012.91
2018-07-15T00:27:58.558Z,1012.91
2018-07-15T00:28:24.698Z,1012.88
2018-07-15T00:28:50.882Z,1012.89
2018-07-15T00:29:17.025Z,1012.92
2018-07-15T00:29:43.174Z,1012.91
2018-07-15T00:30:09.333Z,1012.89
2018-07-15T00:30:35.498Z,1012.89
2018-07-15T00:31:01.629Z,1012.9
2018-07-15T00:31:27.765Z,1012.9
2018-07-15T00:31:53.909Z,1012.85
2018-07-15T00:32:20.069Z,1012.84
2018-07-15T00:32:46.205Z,1012.84
2018-07-15T00:33:12.332Z,1012.87
2018-07-15T00:33:38.476Z,1012.89
2018-07-15T00:34:04.626Z,1012.88
2018-07-15T00:34:30.774Z,1012.85
2018-07-15T00:34:56.938Z,1012.85
2018-07-15T00:35:23.089Z,1012.85
2018-07-15T00:35:49.218Z,1012.83
2018-07-15T00:36:15.357Z,1012.89
2018-07-15T00:36:41.496Z,1012.82
2018-07-15T00:37:07.667Z,1012.86
2018-07-15T00:37:33.800Z,1012.89
2018-07-15T00:37:59.945Z,1012.84
2018-07-15T00:38:26.084Z,1012.84
2018-07-15T00:38:52.231Z,1012.84
2018-07-15T00:39:18.366Z,1012.83
2018-07-15T00:39:44.506Z,1012.88
2018-07-15T00:40:10.646Z,1012.9
2018-07-15T00:40:36.809Z,1012.87
2018-07-15T00:41:02.941Z,1012.88
2018-07-15T00:41:29.085Z,1012.86
2018-07-15T00:41:55.220Z,1012.86
2018-07-15T00:42:21.366Z,1012.85
2018-07-15T00:42:47.510Z,1012.9
2018-07-15T00:43:13.647Z,1012.88
2018-07-15T00:43:39.783Z,1012.89
2018-07-15T00:44:05.916Z,1012.91
2018-07-15T00:44:32.059Z,1012.9
2018-07-15T00:44:58.194Z,1012.91
2018-07-15T00:45:24.335Z,1012.89
2018-07-15T00:45:50.479Z,1012.9
2018-07-15T00:46:16.613Z,1012.88
2018-07-15T00:46:42.756Z,1012.88
2018-07-15T00:47:08.891Z,1012.88
2018-07-15T00:47:35.047Z,1012.88
2018-07-15T00:48:01.216Z,1012.92
2018-07-15T00:48:27.366Z,1012.89
2018-07-15T00:48:53.498Z,1012.89
2018-07-15T00:49:19.634Z,1012.92
2018-07-15T00:49:45.820Z,1012.89
2018-07-15T00:50:11.961Z,1012.91
2018-07-15T00:50:38.102Z,1012.87
2018-07-15T00:51:04.249Z,1012.94
2018-07-15T00:51:30.382Z,1012.92
2018-07-15T00:51:56.516Z,1012.89
2018-07-15T00:52:22.684Z,1012.9
2018-07-15T00:52:48.821Z,1012.92
2018-07-15T00:53:14.962Z,1012.92
2018-07-15T00:53:41.098Z,1012.89
2018-07-15T00:54:07.243Z,1012.93
2018-07-15T00:54:33.390Z,1012.93
2018-07-15T00:54:59.526Z,1012.89
2018-07-15T00:55:25.695Z,1012.92
2018-07-15T00:55:51.853Z,1012.92
2018-07-15T00:56:18.008Z,1012.91
2018-07-15T00:56:44.148Z,1012.9
2018-07-15T00:57:10.314Z,1012.9
2018-07-15T00:57:36.447Z,1012.89
2018-07-15T00:58:02.589Z,1012.91
2018-07-15T00:58:28.735Z,1012.9
2018-07-15T00:58:54.899Z,1012.9
2018-07-15T00:59:21.037Z,1012.9
2018-07-15T00:59:47.187Z,1012.88
2018-07-15T01:00:13.343Z,1012.91
2018-07-15T01:00:39.483Z,1012.87
2018-07-15T01:01:05.622Z,1012.86
2018-07-15T01:01:31.758Z,1012.82
2018-07-15T01:01:57.895Z,1012.83
2018-07-15T01:02:24.033Z,1012.86
2018-07-15T01:02:50.173Z,1012.84
2018-07-15T01:03:16.308Z,1012.87
2018-07-15T01:03:42.482Z,1012.9
2018-07-15T01:04:08.616Z,1012.86
2018-07-15T01:04:34.793Z,1012.85
2018-07-15T01:05:00.960Z,1012.84
2018-07-15T01:05:27.094Z,1012.82
2018-07-15T01:05:53.258Z,1012.84
2018-07-15T01:06:19.398Z,1012.87
2018-07-15T01:06:45.532Z,1012.81
2018-07-15T01:07:11.668Z,1012.89
2018-07-15T01:07:37.808Z,1012.87
2018-07-15T01:08:03.937Z,1012.84
2018-07-15T01:08:30.081Z,1012.85
2018-07-15T01:08:56.215Z,1012.87
2018-07-15T01:09:22.370Z,1012.85
2018-07-15T01:09:48.523Z,1012.86
2018-07-15T01:10:14.663Z,1012.86
2018-07-15T01:10:40.803Z,1012.87
2018-07-15T01:11:06.963Z,1012.86
2018-07-15T01:11:33.101Z,1012.88
2018-07-15T01:11:59.258Z,1012.86
2018-07-15T01:12:25.403Z,1012.85
2018-07-15T01:12:51.562Z,1012.87
2018-07-15T01:13:17.700Z,1012.86
2018-07-15T01:13:43.833Z,1012.86
2018-07-15T01:14:09.977Z,1012.85
2018-07-15T01:14:36.109Z,1012.84
2018-07-15T01:15:02.258Z,1012.84
2018-07-15T01:15:28.403Z,1012.83
2018-07-15T01:15:54.557Z,1012.79
2018-07-15T01:16:20.689Z,1012.8
2018-07-15T01:16:46.859Z,1012.75
2018-07-15T01:17:12.998Z,1012.76
2018-07-15T01:17:39.139Z,1012.81
2018-07-15T01:18:05.272Z,1012.73
2018-07-15T01:18:31.415Z,1012.76
2018-07-15T01:18:57.548Z,1012.78
2018-07-15T01:19:23.710Z,1012.79
2018-07-15T01:19:49.863Z,1012.75
2018-07-15T01:20:15.997Z,1012.75
2018-07-15T01:20:42.130Z,1012.79
2018-07-15T01:21:08.263Z,1012.72
2018-07-15T01:21:34.402Z,1012.8
2018-07-15T01:22:00.564Z,1012.78
2018-07-15T01:22:26.701Z,1012.78
2018-07-15T01:22:52.837Z,1012.74
2018-07-15T01:23:18.979Z,1012.74
2018-07-15T01:23:45.108Z,1012.78
2018-07-15T01:24:11.263Z,1012.78
2018-07-15T01:24:37.430Z,1012.75
2018-07-15T01:25:03.570Z,1012.79
2018-07-15T01:25:29.705Z,1012.78
2018-07-15T01:25:55.842Z,1012.77
2018-07-15T01:26:21.976Z,1012.8
2018-07-15T01:26:48.119Z,1012.78
2018-07-15T01:27:14.256Z,1012.79
2018-07-15T01:27:40.392Z,1012.79
2018-07-15T01:28:06.526Z,1012.75
2018-07-15T01:28:32.719Z,1012.74
2018-07-15T01:28:58.825Z,1012.76
2018-07-15T01:29:24.971Z,1012.76
2018-07-15T01:29:51.098Z,1012.72
2018-07-15T01:30:17.233Z,1012.74
2018-07-15T01:30:43.375Z,1012.72
2018-07-15T01:31:09.511Z,1012.69
2018-07-15T01:31:35.655Z,1012.7
2018-07-15T01:32:01.808Z,1012.73
2018-07-15T01:32:27.949Z,1012.72
2018-07-15T01:32:54.085Z,1012.73
2018-07-15T01:33:20.221Z,1012.7
2018-07-15T01:33:46.361Z,1012.7
2018-07-15T01:34:12.502Z,1012.71
2018-07-15T01:34:38.638Z,1012.69
2018-07-15T01:35:04.803Z,1012.69
2018-07-15T01:35:30.938Z,1012.7
2018-07-15T01:35:57.102Z,1012.68
2018-07-15T01:36:23.230Z,1012.7
2018-07-15T01:36:49.373Z,1012.69
2018-07-15T01:37:15.540Z,1012.69
2018-07-15T01:37:41.696Z,1012.65
2018-07-15T01:38:07.836Z,1012.7
2018-07-15T01:38:33.976Z,1012.7
2018-07-15T01:39:00.135Z,1012.71
2018-07-15T01:39:26.302Z,1012.68
2018-07-15T01:39:52.436Z,1012.69
2018-07-15T01:40:18.580Z,1012.7
2018-07-15T01:40:44.749Z,1012.71
2018-07-15T01:41:10.886Z,1012.71
2018-07-15T01:41:37.054Z,1012.67
2018-07-15T01:42:03.190Z,1012.75
2018-07-15T01:42:29.327Z,1012.74
2018-07-15T01:42:55.511Z,1012.74
2018-07-15T01:43:21.649Z,1012.69
2018-07-15T01:43:47.787Z,1012.74
2018-07-15T01:44:13.949Z,1012.74
2018-07-15T01:44:40.088Z,1012.69
2018-07-15T01:45:06.224Z,1012.67
2018-07-15T01:45:32.371Z,1012.72
2018-07-15T01:45:58.527Z,1012.69
2018-07-15T01:46:24.671Z,1012.73
2018-07-15T01:46:50.804Z,1012.69
2018-07-15T01:47:16.935Z,1012.7
2018-07-15T01:47:43.100Z,1012.68
2018-07-15T01:48:09.238Z,1012.67
2018-07-15T01:48:35.383Z,1012.7
2018-07-15T01:49:01.524Z,1012.67
2018-07-15T01:49:27.692Z,1012.69
2018-07-15T01:49:53.824Z,1012.7
2018-07-15T01:50:19.957Z,1012.71
2018-07-15T01:50:46.120Z,1012.7
2018-07-15T01:51:12.255Z,1012.71
2018-07-15T01:51:38.391Z,1012.68
2018-07-15T01:52:04.533Z,1012.67
2018-07-15T01:52:30.666Z,1012.66
2018-07-15T01:52:56.797Z,1012.69
2018-07-15T01:53:22.970Z,1012.67
2018-07-15T01:53:49.098Z,1012.68
2018-07-15T01:54:15.234Z,1012.7
2018-07-15T01:54:41.392Z,1012.7
2018-07-15T01:55:07.551Z,1012.67
2018-07-15T01:55:33.686Z,1012.66
2018-07-15T01:55:59.824Z,1012.72
2018-07-15T01:56:25.963Z,1012.71
2018-07-15T01:56:52.098Z,1012.72
2018-07-15T01:57:18.265Z,1012.71
2018-07-15T01:57:44.426Z,1012.7
2018-07-15T01:58:10.568Z,1012.67
2018-07-15T01:58:36.724Z,1012.71
2018-07-15T01:59:02.855Z,1012.69
2018-07-15T01:59:28.997Z,1012.68
2018-07-15T01:59:55.135Z,1012.68
2018-07-15T02:00:21.291Z,1012.65
2018-07-15T02:00:47.432Z,1012.65
2018-07-15T02:01:13.567Z,1012.65
2018-07-15T02:01:39.704Z,1012.67
2018-07-15T02:02:05.840Z,1012.65
2018-07-15T02:02:31.983Z,1012.66
2018-07-15T02:02:58.121Z,1012.68
2018-07-15T02:03:24.255Z,1012.66
2018-07-15T02:03:50.393Z,1012.67
2018-07-15T02:04:16.539Z,1012.67
2018-07-15T02:04:42.672Z,1012.64
2018-07-15T02:05:08.813Z,1012.65
2018-07-15T02:05:34.945Z,1012.62
2018-07-15T02:06:01.132Z,1012.7
2018-07-15T02:06:27.265Z,1012.67
2018-07-15T02:06:53.396Z,1012.65
2018-07-15T02:07:19.533Z,1012.65
2018-07-15T02:07:45.696Z,1012.66
2018-07-15T02:08:11.830Z,1012.67
2018-07-15T02:08:37.966Z,1012.68
2018-07-15T02:09:04.106Z,1012.67
2018-07-15T02:09:30.248Z,1012.68
2018-07-15T02:09:56.385Z,1012.65
2018-07-15T02:10:22.549Z,1012.7
2018-07-15T02:10:48.684Z,1012.67
2018-07-15T02:11:14.819Z,1012.66
2018-07-15T02:11:40.957Z,1012.69
2018-07-15T02:12:07.093Z,1012.68
2018-07-15T02:12:33.237Z,1012.65
2018-07-15T02:12:59.379Z,1012.68
2018-07-15T02:13:25.539Z,1012.66
2018-07-15T02:13:51.664Z,1012.7
2018-07-15T02:14:17.806Z,1012.68
2018-07-15T02:14:43.940Z,1012.66
2018-07-15T02:15:10.080Z,1012.67
2018-07-15T02:15:36.234Z,1012.66
2018-07-15T02:16:02.378Z,1012.67
2018-07-15T02:16:28.516Z,1012.69
2018-07-15T02:16:54.663Z,1012.62
2018-07-15T02:17:20.800Z,1012.67
2018-07-15T02:17:46.940Z,1012.66
2018-07-15T02:18:13.082Z,1012.63
2018-07-15T02:18:39.217Z,1012.63
2018-07-15T02:19:05.389Z,1012.65
2018-07-15T02:19:31.519Z,1012.64
2018-07-15T02:19:57.658Z,1012.64
2018-07-15T02:20:23.793Z,1012.64
2018-07-15T02:20:49.941Z,1012.65
2018-07-15T02:21:16.065Z,1012.65
2018-07-15T02:21:42.203Z,1012.63
2018-07-15T02:22:08.341Z,1012.64
2018-07-15T02:22:34.510Z,1012.66
2018-07-15T02:23:00.671Z,1012.66
2018-07-15T02:23:26.812Z,1012.66
2018-07-15T02:23:52.944Z,1012.65
2018-07-15T02:24:19.083Z,1012.63
2018-07-15T02:24:45.239Z,1012.62
2018-07-15T02:25:11.380Z,1012.64
2018-07-15T02:25:37.511Z,1012.66
2018-07-15T02:26:03.653Z,1012.66
2018-07-15T02:26:29.786Z,1012.68
2018-07-15T02:26:55.924Z,1012.63
2018-07-15T02:27:22.069Z,1012.64
2018-07-15T02:27:48.200Z,1012.62
2018-07-15T02:28:14.341Z,1012.66
2018-07-15T02:28:40.478Z,1012.61
2018-07-15T02:29:06.618Z,1012.64
2018-07-15T02:29:32.784Z,1012.68
2018-07-15T02:29:58.929Z,1012.64
2018-07-15T02:30:25.063Z,1012.62
2018-07-15T02:30:51.255Z,1012.64
2018-07-15T02:31:17.395Z,1012.66
2018-07-15T02:31:43.534Z,1012.61
2018-07-15T02:32:09.700Z,1012.61
2018-07-15T02:32:35.860Z,1012.62
2018-07-15T02:33:02.018Z,1012.62
2018-07-15T02:33:28.208Z,1012.62
2018-07-15T02:33:54.414Z,1012.64
2018-07-15T02:34:20.591Z,1012.59
2018-07-15T02:34:46.731Z,1012.62
2018-07-15T02:35:12.864Z,1012.56
2018-07-15T02:35:39.000Z,1012.59
2018-07-15T02:36:05.141Z,1012.61
2018-07-15T02:36:31.292Z,1012.6
2018-07-15T02:36:57.446Z,1012.62
2018-07-15T02:37:23.579Z,1012.61
2018-07-15T02:37:49.717Z,1012.6
2018-07-15T02:38:15.881Z,1012.61
2018-07-15T02:38:42.065Z,1012.61
2018-07-15T02:39:08.206Z,1012.55
2018-07-15T02:39:34.347Z,1012.6
2018-07-15T02:40:00.500Z,1012.55
2018-07-15T02:40:26.639Z,1012.58
2018-07-15T02:40:52.827Z,1012.58
2018-07-15T02:41:18.983Z,1012.6
2018-07-15T02:41:45.153Z,1012.58
2018-07-15T02:42:11.294Z,1012.59
2018-07-15T02:42:37.476Z,1012.56
2018-07-15T02:43:03.638Z,1012.57
2018-07-15T02:43:29.832Z,1012.59
2018-07-15T02:43:55.983Z,1012.58
2018-07-15T02:44:22.141Z,1012.59
2018-07-15T02:44:48.275Z,1012.57
2018-07-15T02:45:14.414Z,1012.57
2018-07-15T02:45:40.571Z,1012.56
2018-07-15T02:46:06.707Z,1012.58
2018-07-15T02:46:32.868Z,1012.56
2018-07-15T02:46:59.056Z,1012.56
2018-07-15T02:47:25.215Z,1012.6
2018-07-15T02:47:51.361Z,1012.58
2018-07-15T02:48:17.493Z,1012.59
2018-07-15T02:48:43.624Z,1012.59
2018-07-15T02:49:09.794Z,1012.57
2018-07-15T02:49:35.929Z,1012.56
2018-07-15T02:50:02.086Z,1012.57
2018-07-15T02:50:28.282Z,1012.58
2018-07-15T02:50:54.414Z,1012.59
2018-07-15T02:51:20.635Z,1012.55
2018-07-15T02:51:46.815Z,1012.6
2018-07-15T02:52:13.003Z,1012.54
2018-07-15T02:52:39.181Z,1012.56
2018-07-15T02:53:05.323Z,1012.58
2018-07-15T02:53:31.488Z,1012.57
2018-07-15T02:53:57.669Z,1012.6
2018-07-15T02:54:23.814Z,1012.58
2018-07-15T02:54:49.953Z,1012.61
2018-07-15T02:55:16.099Z,1012.61
2018-07-15T02:55:42.231Z,1012.56
2018-07-15T02:56:08.409Z,1012.54
2018-07-15T02:56:34.563Z,1012.57
2018-07-15T02:57:00.731Z,1012.58
2018-07-15T02:57:26.873Z,1012.58
2018-07-15T02:57:53.037Z,1012.57
2018-07-15T02:58:19.171Z,1012.57
2018-07-15T02:58:45.368Z,1012.58
2018-07-15T02:59:11.504Z,1012.55
2018-07-15T02:59:37.686Z,1012.55
2018-07-15T03:00:03.877Z,1012.59
2018-07-15T03:00:30.119Z,1012.58
2018-07-15T03:00:56.254Z,1012.6
2018-07-15T03:01:22.414Z,1012.59
2018-07-15T03:01:48.573Z,1012.59
2018-07-15T03:02:14.774Z,1012.6
2018-07-15T03:02:40.943Z,1012.59
2018-07-15T03:03:07.101Z,1012.55
2018-07-15T03:03:33.243Z,1012.55
2018-07-15T03:03:59.427Z,1012.55
2018-07-15T03:04:25.590Z,1012.57
2018-07-15T03:04:51.749Z,1012.56
2018-07-15T03:05:17.896Z,1012.58
2018-07-15T03:05:44.055Z,1012.56
2018-07-15T03:06:10.212Z,1012.58
2018-07-15T03:06:36.374Z,1012.56
2018-07-15T03:07:02.511Z,1012.48
2018-07-15T03:07:28.650Z,1012.48
2018-07-15T03:07:54.841Z,1012.52
2018-07-15T03:08:21.007Z,1012.5
2018-07-15T03:08:47.142Z,1012.48
2018-07-15T03:09:13.278Z,1012.49
2018-07-15T03:09:39.437Z,1012.47
2018-07-15T03:10:05.597Z,1012.45
2018-07-15T03:10:31.738Z,1012.45
2018-07-15T03:10:57.923Z,1012.45
2018-07-15T03:11:24.115Z,1012.45
2018-07-15T03:11:50.276Z,1012.44
2018-07-15T03:12:16.410Z,1012.49
2018-07-15T03:12:42.555Z,1012.45
2018-07-15T03:13:08.706Z,1012.45
2018-07-15T03:13:34.849Z,1012.43
2018-07-15T03:14:01.011Z,1012.48
2018-07-15T03:14:27.155Z,1012.43
2018-07-15T03:14:53.318Z,1012.44
2018-07-15T03:15:19.459Z,1012.44
2018-07-15T03:15:45.592Z,1012.45
2018-07-15T03:16:11.731Z,1012.46
2018-07-15T03:16:37.896Z,1012.48
2018-07-15T03:17:04.029Z,1012.43
2018-07-15T03:17:30.298Z,1012.43
2018-07-15T03:17:56.353Z,1012.43
2018-07-15T03:18:22.497Z,1012.44
2018-07-15T03:18:48.684Z,1012.44
2018-07-15T03:19:14.826Z,1012.44
2018-07-15T03:19:41.001Z,1012.42
2018-07-15T03:20:07.144Z,1012.42
2018-07-15T03:20:33.322Z,1012.42
2018-07-15T03:20:59.513Z,1012.45
2018-07-15T03:21:25.679Z,1012.41
2018-07-15T03:21:51.871Z,1012.42
2018-07-15T03:22:18.006Z,1012.44
2018-07-15T03:22:44.192Z,1012.41
2018-07-15T03:23:10.328Z,1012.42
2018-07-15T03:23:36.489Z,1012.38
2018-07-15T03:24:02.653Z,1012.38
2018-07-15T03:24:28.805Z,1012.39
2018-07-15T03:24:54.992Z,1012.37
2018-07-15T03:25:21.157Z,1012.38
2018-07-15T03:25:47.333Z,1012.34
2018-07-15T03:26:13.461Z,1012.35
2018-07-15T03:26:39.621Z,1012.33
2018-07-15T03:27:05.764Z,1012.37
2018-07-15T03:27:31.952Z,1012.37
2018-07-15T03:27:58.094Z,1012.32
2018-07-15T03:28:24.239Z,1012.39
2018-07-15T03:28:50.385Z,1012.35
2018-07-15T03:29:16.522Z,1012.37
2018-07-15T03:29:42.659Z,1012.34
2018-07-15T03:30:08.805Z,1012.38
2018-07-15T03:30:35.003Z,1012.37
2018-07-15T03:31:01.187Z,1012.36
2018-07-15T03:31:27.346Z,1012.35
2018-07-15T03:31:53.534Z,1012.37
2018-07-15T03:32:19.696Z,1012.37
2018-07-15T03:32:45.833Z,1012.36
2018-07-15T03:33:11.995Z,1012.37
2018-07-15T03:33:38.141Z,1012.35
2018-07-15T03:34:04.321Z,1012.36
2018-07-15T03:34:30.472Z,1012.37
2018-07-15T03:34:56.608Z,1012.36
2018-07-15T03:35:22.760Z,1012.38
2018-07-15T03:35:48.922Z,1012.38
2018-07-15T03:36:15.080Z,1012.36
2018-07-15T03:36:41.223Z,1012.36
2018-07-15T03:37:07.362Z,1012.37
2018-07-15T03:37:33.497Z,1012.38
2018-07-15T03:37:59.635Z,1012.33
2018-07-15T03:38:25.793Z,1012.35
2018-07-15T03:38:51.955Z,1012.35
2018-07-15T03:39:18.123Z,1012.35
2018-07-15T03:39:44.337Z,1012.33
2018-07-15T03:40:10.433Z,1012.34
2018-07-15T03:40:36.569Z,1012.32
2018-07-15T03:41:02.736Z,1012.3
2018-07-15T03:41:28.918Z,1012.31
2018-07-15T03:41:55.057Z,1012.34
2018-07-15T03:42:21.194Z,1012.32
2018-07-15T03:42:47.361Z,1012.34
2018-07-15T03:43:13.540Z,1012.28
2018-07-15T03:43:39.678Z,1012.34
2018-07-15T03:44:05.844Z,1012.33
2018-07-15T03:44:31.981Z,1012.33
2018-07-15T03:44:58.137Z,1012.34
2018-07-15T03:45:24.282Z,1012.3
2018-07-15T03:45:50.427Z,1012.3
2018-07-15T03:46:16.561Z,1012.33
2018-07-15T03:46:42.703Z,1012.33
2018-07-15T03:47:08.836Z,1012.33
2018-07-15T03:47:34.983Z,1012.34
2018-07-15T03:48:01.139Z,1012.32
2018-07-15T03:48:27.274Z,1012.32
2018-07-15T03:48:53.406Z,1012.35
2018-07-15T03:49:19.542Z,1012.34
2018-07-15T03:49:45.689Z,1012.32
2018-07-15T03:50:11.818Z,1012.32
2018-07-15T03:50:37.959Z,1012.32
2018-07-15T03:51:04.131Z,1012.34
2018-07-15T03:51:30.267Z,1012.35
2018-07-15T03:51:56.407Z,1012.37
2018-07-15T03:52:22.544Z,1012.3
2018-07-15T03:52:48.689Z,1012.32
2018-07-15T03:53:14.829Z,1012.31
2018-07-15T03:53:40.974Z,1012.32
2018-07-15T03:54:07.108Z,1012.32
2018-07-15T03:54:33.251Z,1012.32
2018-07-15T03:54:59.389Z,1012.35
2018-07-15T03:55:25.533Z,1012.37
2018-07-15T03:55:51.667Z,1012.36
2018-07-15T03:56:17.833Z,1012.33
2018-07-15T03:56:43.965Z,1012.34
2018-07-15T03:57:10.128Z,1012.34
2018-07-15T03:57:36.265Z,1012.35
2018-07-15T03:58:02.403Z,1012.33
2018-07-15T03:58:28.540Z,1012.34
2018-07-15T03:58:54.674Z,1012.32
2018-07-15T03:59:20.812Z,1012.35
2018-07-15T03:59:46.953Z,1012.31
2018-07-15T04:00:13.093Z,1012.32
2018-07-15T04:00:39.262Z,1012.34
2018-07-15T04:01:05.400Z,1012.31
2018-07-15T04:01:31.536Z,1012.33
2018-07-15T04:01:57.695Z,1012.33
2018-07-15T04:02:23.831Z,1012.31
2018-07-15T04:02:49.968Z,1012.31
2018-07-15T04:03:16.106Z,1012.34
2018-07-15T04:03:42.244Z,1012.36
2018-07-15T04:04:08.388Z,1012.34
2018-07-15T04:04:34.520Z,1012.36
2018-07-15T04:05:00.663Z,1012.37
2018-07-15T04:05:26.849Z,1012.39
2018-07-15T04:05:52.985Z,1012.37
2018-07-15T04:06:19.140Z,1012.4
2018-07-15T04:06:45.283Z,1012.41
2018-07-15T04:07:11.421Z,1012.35
2018-07-15T04:07:37.583Z,1012.37
2018-07-15T04:08:03.740Z,1012.36
2018-07-15T04:08:29.974Z,1012.36
2018-07-15T04:08:56.192Z,1012.37
2018-07-15T04:09:22.230Z,1012.37
2018-07-15T04:09:48.357Z,1012.35
2018-07-15T04:10:14.500Z,1012.4
2018-07-15T04:10:40.666Z,1012.39
2018-07-15T04:11:06.805Z,1012.4
2018-07-15T04:11:32.941Z,1012.4
2018-07-15T04:11:59.115Z,1012.39
2018-07-15T04:12:25.258Z,1012.35
2018-07-15T04:12:51.390Z,1012.41
2018-07-15T04:13:17.534Z,1012.38
2018-07-15T04:13:43.673Z,1012.36
2018-07-15T04:14:09.818Z,1012.36
2018-07-15T04:14:35.951Z,1012.36
2018-07-15T04:15:02.091Z,1012.41
2018-07-15T04:15:28.240Z,1012.39
2018-07-15T04:15:54.399Z,1012.4
2018-07-15T04:16:20.567Z,1012.4
2018-07-15T04:16:46.708Z,1012.39
2018-07-15T04:17:12.843Z,1012.41
2018-07-15T04:17:38.976Z,1012.39
2018-07-15T04:18:05.119Z,1012.38
2018-07-15T04:18:31.255Z,1012.38
2018-07-15T04:18:57.392Z,1012.38
2018-07-15T04:19:23.530Z,1012.37
2018-07-15T04:19:49.668Z,1012.37
2018-07-15T04:20:15.829Z,1012.39
2018-07-15T04:20:41.971Z,1012.36
2018-07-15T04:21:08.106Z,1012.38
2018-07-15T04:21:34.266Z,1012.36
2018-07-15T04:22:00.397Z,1012.35
2018-07-15T04:22:26.535Z,1012.38
2018-07-15T04:22:52.678Z,1012.35
2018-07-15T04:23:18.813Z,1012.34
2018-07-15T04:23:44.939Z,1012.34
2018-07-15T04:24:11.106Z,1012.35
2018-07-15T04:24:37.245Z,1012.32
2018-07-15T04:25:03.379Z,1012.32
2018-07-15T04:25:29.519Z,1012.32
2018-07-15T04:25:55.658Z,1012.33
2018-07-15T04:26:21.797Z,1012.35
2018-07-15T04:26:47.947Z,1012.33
2018-07-15T04:27:14.127Z,1012.34
2018-07-15T04:27:40.265Z,1012.31
2018-07-15T04:28:06.402Z,1012.31
2018-07-15T04:28:32.543Z,1012.31
2018-07-15T04:28:58.708Z,1012.33
2018-07-15T04:29:24.851Z,1012.33
2018-07-15T04:29:50.996Z,1012.35
2018-07-15T04:30:17.152Z,1012.36
2018-07-15T04:30:43.287Z,1012.34
2018-07-15T04:31:09.431Z,1012.37
2018-07-15T04:31:35.569Z,1012.34
2018-07-15T04:32:01.708Z,1012.34
2018-07-15T04:32:27.866Z,1012.34
2018-07-15T04:32:54.008Z,1012.32
2018-07-15T04:33:20.147Z,1012.31
2018-07-15T04:33:46.306Z,1012.34
2018-07-15T04:34:12.445Z,1012.3
2018-07-15T04:34:38.577Z,1012.29
2018-07-15T04:35:04.718Z,1012.31
2018-07-15T04:35:30.856Z,1012.3
2018-07-15T04:35:56.997Z,1012.32
2018-07-15T04:36:23.162Z,1012.33
2018-07-15T04:36:49.302Z,1012.35
2018-07-15T04:37:15.434Z,1012.32
2018-07-15T04:37:41.569Z,1012.34
2018-07-15T04:38:07.733Z,1012.35
2018-07-15T04:38:33.869Z,1012.33
2018-07-15T04:39:00.017Z,1012.33
2018-07-15T04:39:26.199Z,1012.33
2018-07-15T04:39:52.331Z,1012.36
2018-07-15T04:40:18.502Z,1012.33
2018-07-15T04:40:44.642Z,1012.37
2018-07-15T04:41:10.780Z,1012.35
2018-07-15T04:41:36.920Z,1012.33
2018-07-15T04:42:03.089Z,1012.37
2018-07-15T04:42:29.201Z,1012.38
2018-07-15T04:42:55.354Z,1012.33
2018-07-15T04:43:21.492Z,1012.34
2018-07-15T04:43:47.675Z,1012.36
2018-07-15T04:44:13.784Z,1012.33
2018-07-15T04:44:39.936Z,1012.34
2018-07-15T04:45:06.080Z,1012.36
2018-07-15T04:45:32.213Z,1012.34
2018-07-15T04:45:58.371Z,1012.33
2018-07-15T04:46:24.507Z,1012.34
2018-07-15T04:46:50.651Z,1012.36
2018-07-15T04:47:16.782Z,1012.32
2018-07-15T04:47:42.948Z,1012.33
2018-07-15T04:48:09.084Z,1012.32
2018-07-15T04:48:35.217Z,1012.35
2018-07-15T04:49:01.353Z,1012.39
2018-07-15T04:49:27.492Z,1012.35
2018-07-15T04:49:53.625Z,1012.39
2018-07-15T04:50:19.760Z,1012.37
2018-07-15T04:50:45.903Z,1012.38
2018-07-15T04:51:12.035Z,1012.4
2018-07-15T04:51:38.169Z,1012.4
2018-07-15T04:52:04.307Z,1012.47
2018-07-15T04:52:30.443Z,1012.45
2018-07-15T04:52:56.608Z,1012.46
2018-07-15T04:53:22.748Z,1012.49
2018-07-15T04:53:48.879Z,1012.48
2018-07-15T04:54:15.016Z,1012.5
2018-07-15T04:54:41.202Z,1012.53
2018-07-15T04:55:07.364Z,1012.49
2018-07-15T04:55:33.497Z,1012.47
2018-07-15T04:55:59.639Z,1012.5
2018-07-15T04:56:25.772Z,1012.46
2018-07-15T04:56:51.911Z,1012.45
2018-07-15T04:57:18.071Z,1012.43
2018-07-15T04:57:44.208Z,1012.41
2018-07-15T04:58:10.350Z,1012.43
2018-07-15T04:58:36.491Z,1012.41
2018-07-15T04:59:02.629Z,1012.35
2018-07-15T04:59:28.767Z,1012.39
2018-07-15T04:59:54.909Z,1012.41
2018-07-15T05:00:21.050Z,1012.41
2018-07-15T05:00:47.217Z,1012.39
2018-07-15T05:01:13.377Z,1012.39
2018-07-15T05:01:39.542Z,1012.38
2018-07-15T05:02:05.797Z,1012.37
2018-07-15T05:02:31.838Z,1012.36
2018-07-15T05:02:57.980Z,1012.35
2018-07-15T05:03:24.119Z,1012.35
2018-07-15T05:03:50.288Z,1012.29
2018-07-15T05:04:16.423Z,1012.35
2018-07-15T05:04:42.564Z,1012.34
2018-07-15T05:05:08.749Z,1012.29
2018-07-15T05:05:34.925Z,1012.31
2018-07-15T05:06:01.068Z,1012.32
2018-07-15T05:06:27.211Z,1012.25
2018-07-15T05:06:53.356Z,1012.29
2018-07-15T05:07:19.495Z,1012.23
2018-07-15T05:07:45.640Z,1012.21
2018-07-15T05:08:11.781Z,1012.2
2018-07-15T05:08:37.918Z,1012.24
2018-07-15T05:09:04.114Z,1012.28
2018-07-15T05:09:30.192Z,1012.27
2018-07-15T05:09:56.339Z,1012.26
2018-07-15T05:10:22.470Z,1012.27
2018-07-15T05:10:48.609Z,1012.26
2018-07-15T05:11:14.758Z,1012.3
2018-07-15T05:11:40.885Z,1012.26
2018-07-15T05:12:07.047Z,1012.23
2018-07-15T05:12:33.229Z,1012.22
2018-07-15T05:12:59.360Z,1012.24
2018-07-15T05:13:25.516Z,1012.22
2018-07-15T05:13:51.665Z,1012.22
2018-07-15T05:14:17.797Z,1012.26
2018-07-15T05:14:43.938Z,1012.23
2018-07-15T05:15:10.072Z,1012.22
2018-07-15T05:15:36.209Z,1012.23
2018-07-15T05:16:02.371Z,1012.2
2018-07-15T05:16:28.510Z,1012.2
2018-07-15T05:16:54.661Z,1012.25